sensor_id;sensor_type;location;lat;lon;timestamp;P1;durP1;ratioP1;P2;durP2;ratioP2
23101;SDS011;11720;51.214;22.574;2023-02-15T00:01:37;19.63;;;7.87;;
23101;SDS011;11720;51.214;22.574;2023-02-15T00:04:03;14.60;;;6.87;;
23101;SDS011;11720;51.214;22.574;2023-02-15T00:06:30;20.37;;;9.50;;
23101;SDS011;11720;51.214;22.574;2023-02-15T00:08:56;13.37;;;7.53;;
23101;SDS011;11720;51.214;22.574;2023-02-15T00:11:22;13.83;;;7.87;;
23101;SDS011;11720;51.214;22.574;2023-02-15T00:14:17;19.53;;;9.37;;
23101;SDS011;11720;51.214;22.574;2023-02-15T00:16:45;12.37;;;5.93;;
23101;SDS011;11720;51.214;22.574;2023-02-15T00:19:11;15.60;;;8.07;;
23101;SDS011;11720;51.214;22.574;2023-02-15T00:21:39;14.50;;;8.20;;
23101;SDS011;11720;51.214;22.574;2023-02-15T00:24:06;18.17;;;7.97;;
23101;SDS011;11720;51.214;22.574;2023-02-15T00:26:33;18.20;;;8.00;;
23101;SDS011;11720;51.214;22.574;2023-02-15T00:28:59;15.07;;;9.00;;
23101;SDS011;11720;51.214;22.574;2023-02-15T00:31:25;15.57;;;8.20;;
23101;SDS011;11720;51.214;22.574;2023-02-15T00:33:52;27.67;;;10.73;;
23101;SDS011;11720;51.214;22.574;2023-02-15T00:36:18;15.87;;;7.23;;
23101;SDS011;11720;51.214;22.574;2023-02-15T00:38:43;29.60;;;9.40;;
23101;SDS011;11720;51.214;22.574;2023-02-15T00:41:09;17.17;;;7.43;;
23101;SDS011;11720;51.214;22.574;2023-02-15T00:43:35;28.47;;;10.00;;
23101;SDS011;11720;51.214;22.574;2023-02-15T00:46:02;17.47;;;8.30;;
23101;SDS011;11720;51.214;22.574;2023-02-15T00:48:29;17.83;;;8.93;;
23101;SDS011;11720;51.214;22.574;2023-02-15T00:50:56;20.60;;;9.03;;
23101;SDS011;11720;51.214;22.574;2023-02-15T00:53:24;15.53;;;7.70;;
23101;SDS011;11720;51.214;22.574;2023-02-15T00:55:51;17.90;;;9.03;;
23101;SDS011;11720;51.214;22.574;2023-02-15T00:58:17;23.37;;;9.13;;
23101;SDS011;11720;51.214;22.574;2023-02-15T01:00:44;19.27;;;8.43;;
23101;SDS011;11720;51.214;22.574;2023-02-15T01:03:11;20.00;;;8.50;;
23101;SDS011;11720;51.214;22.574;2023-02-15T01:05:37;14.17;;;6.93;;
23101;SDS011;11720;51.214;22.574;2023-02-15T01:08:03;17.80;;;8.23;;
23101;SDS011;11720;51.214;22.574;2023-02-15T01:10:29;13.50;;;7.33;;
23101;SDS011;11720;51.214;22.574;2023-02-15T01:12:55;18.93;;;6.73;;
23101;SDS011;11720;51.214;22.574;2023-02-15T01:15:21;21.80;;;8.20;;
23101;SDS011;11720;51.214;22.574;2023-02-15T01:17:47;17.30;;;7.50;;
23101;SDS011;11720;51.214;22.574;2023-02-15T01:20:21;16.83;;;7.77;;
23101;SDS011;11720;51.214;22.574;2023-02-15T01:22:48;18.07;;;8.47;;
23101;SDS011;11720;51.214;22.574;2023-02-15T01:25:18;18.37;;;7.17;;
23101;SDS011;11720;51.214;22.574;2023-02-15T01:27:45;20.73;;;7.60;;
23101;SDS011;11720;51.214;22.574;2023-02-15T01:30:11;15.67;;;7.47;;
23101;SDS011;11720;51.214;22.574;2023-02-15T01:32:38;15.57;;;8.13;;
23101;SDS011;11720;51.214;22.574;2023-02-15T01:35:03;22.17;;;9.73;;
23101;SDS011;11720;51.214;22.574;2023-02-15T01:37:30;16.63;;;7.27;;
23101;SDS011;11720;51.214;22.574;2023-02-15T01:39:57;21.77;;;7.33;;
23101;SDS011;11720;51.214;22.574;2023-02-15T01:42:24;19.83;;;7.87;;
23101;SDS011;11720;51.214;22.574;2023-02-15T01:48:10;20.33;;;8.67;;
23101;SDS011;11720;51.214;22.574;2023-02-15T01:55:25;23.27;;;9.43;;
23101;SDS011;11720;51.214;22.574;2023-02-15T01:57:55;10.20;;;6.50;;
23101;SDS011;11720;51.214;22.574;2023-02-15T02:00:21;19.70;;;8.87;;
23101;SDS011;11720;51.214;22.574;2023-02-15T02:02:47;22.63;;;10.10;;
23101;SDS011;11720;51.214;22.574;2023-02-15T02:05:15;15.47;;;6.97;;
23101;SDS011;11720;51.214;22.574;2023-02-15T02:07:42;26.83;;;9.43;;
23101;SDS011;11720;51.214;22.574;2023-02-15T02:10:11;15.67;;;7.93;;
23101;SDS011;11720;51.214;22.574;2023-02-15T02:12:40;21.23;;;8.90;;
23101;SDS011;11720;51.214;22.574;2023-02-15T02:15:08;16.83;;;7.80;;
23101;SDS011;11720;51.214;22.574;2023-02-15T02:34:45;19.27;;;7.77;;
23101;SDS011;11720;51.214;22.574;2023-02-15T02:40:06;21.93;;;9.00;;
23101;SDS011;11720;51.214;22.574;2023-02-15T02:42:44;19.27;;;8.20;;
23101;SDS011;11720;51.214;22.574;2023-02-15T02:46:10;21.40;;;10.00;;
23101;SDS011;11720;51.214;22.574;2023-02-15T02:48:26;15.93;;;7.83;;
23101;SDS011;11720;51.214;22.574;2023-02-15T02:50:55;15.10;;;7.97;;
23101;SDS011;11720;51.214;22.574;2023-02-15T02:53:21;28.30;;;10.67;;
23101;SDS011;11720;51.214;22.574;2023-02-15T02:55:49;23.57;;;8.10;;
23101;SDS011;11720;51.214;22.574;2023-02-15T03:05:48;22.67;;;8.83;;
23101;SDS011;11720;51.214;22.574;2023-02-15T03:08:19;21.50;;;8.57;;
23101;SDS011;11720;51.214;22.574;2023-02-15T03:10:48;19.77;;;9.03;;
23101;SDS011;11720;51.214;22.574;2023-02-15T03:13:18;18.27;;;8.50;;
23101;SDS011;11720;51.214;22.574;2023-02-15T03:15:44;25.60;;;9.57;;
23101;SDS011;11720;51.214;22.574;2023-02-15T03:18:31;17.77;;;8.63;;
23101;SDS011;11720;51.214;22.574;2023-02-15T03:21:01;16.47;;;8.93;;
23101;SDS011;11720;51.214;22.574;2023-02-15T03:23:29;16.77;;;7.13;;
23101;SDS011;11720;51.214;22.574;2023-02-15T03:26:00;20.87;;;6.57;;
23101;SDS011;11720;51.214;22.574;2023-02-15T03:28:32;18.50;;;7.83;;
23101;SDS011;11720;51.214;22.574;2023-02-15T03:31:04;21.07;;;7.73;;
23101;SDS011;11720;51.214;22.574;2023-02-15T03:33:31;17.50;;;8.67;;
23101;SDS011;11720;51.214;22.574;2023-02-15T03:38:52;23.93;;;9.33;;
23101;SDS011;11720;51.214;22.574;2023-02-15T03:41:39;20.97;;;7.70;;
23101;SDS011;11720;51.214;22.574;2023-02-15T03:44:23;15.30;;;7.23;;
23101;SDS011;11720;51.214;22.574;2023-02-15T03:49:36;10.47;;;7.20;;
23101;SDS011;11720;51.214;22.574;2023-02-15T03:52:07;16.07;;;7.77;;
23101;SDS011;11720;51.214;22.574;2023-02-15T03:54:35;16.77;;;7.63;;
23101;SDS011;11720;51.214;22.574;2023-02-15T03:59:58;13.20;;;6.37;;
23101;SDS011;11720;51.214;22.574;2023-02-15T04:05:15;12.00;;;5.97;;
23101;SDS011;11720;51.214;22.574;2023-02-15T04:07:41;18.80;;;7.03;;
23101;SDS011;11720;51.214;22.574;2023-02-15T04:10:06;11.00;;;6.63;;
23101;SDS011;11720;51.214;22.574;2023-02-15T04:12:51;14.63;;;6.27;;
23101;SDS011;11720;51.214;22.574;2023-02-15T04:15:16;12.30;;;5.70;;
23101;SDS011;11720;51.214;22.574;2023-02-15T04:18:02;12.27;;;5.60;;
23101;SDS011;11720;51.214;22.574;2023-02-15T04:20:28;13.17;;;8.00;;
23101;SDS011;11720;51.214;22.574;2023-02-15T04:23:12;11.80;;;6.37;;
23101;SDS011;11720;51.214;22.574;2023-02-15T04:25:56;16.07;;;7.40;;
23101;SDS011;11720;51.214;22.574;2023-02-15T04:28:22;23.27;;;7.67;;
23101;SDS011;11720;51.214;22.574;2023-02-15T04:30:48;15.77;;;6.47;;
23101;SDS011;11720;51.214;22.574;2023-02-15T04:33:13;8.17;;;5.90;;
23101;SDS011;11720;51.214;22.574;2023-02-15T04:35:39;14.20;;;5.80;;
23101;SDS011;11720;51.214;22.574;2023-02-15T04:38:04;16.33;;;6.13;;
23101;SDS011;11720;51.214;22.574;2023-02-15T04:40:30;13.87;;;6.40;;
23101;SDS011;11720;51.214;22.574;2023-02-15T04:42:56;13.13;;;6.83;;
23101;SDS011;11720;51.214;22.574;2023-02-15T04:45:21;10.10;;;4.97;;
23101;SDS011;11720;51.214;22.574;2023-02-15T04:47:47;13.50;;;6.00;;
23101;SDS011;11720;51.214;22.574;2023-02-15T04:50:13;18.40;;;8.10;;
23101;SDS011;11720;51.214;22.574;2023-02-15T04:52:38;15.30;;;7.20;;
23101;SDS011;11720;51.214;22.574;2023-02-15T04:55:04;18.03;;;8.90;;
23101;SDS011;11720;51.214;22.574;2023-02-15T04:57:30;22.17;;;6.93;;
23101;SDS011;11720;51.214;22.574;2023-02-15T04:59:56;12.93;;;6.70;;
23101;SDS011;11720;51.214;22.574;2023-02-15T05:02:23;21.33;;;8.07;;
23101;SDS011;11720;51.214;22.574;2023-02-15T05:04:49;10.10;;;6.27;;
23101;SDS011;11720;51.214;22.574;2023-02-15T05:07:15;12.43;;;6.37;;
23101;SDS011;11720;51.214;22.574;2023-02-15T05:09:41;17.27;;;7.77;;
23101;SDS011;11720;51.214;22.574;2023-02-15T05:12:06;18.30;;;6.03;;
23101;SDS011;11720;51.214;22.574;2023-02-15T05:14:32;10.93;;;5.93;;
23101;SDS011;11720;51.214;22.574;2023-02-15T05:16:58;13.63;;;5.97;;
23101;SDS011;11720;51.214;22.574;2023-02-15T05:19:26;18.53;;;7.10;;
23101;SDS011;11720;51.214;22.574;2023-02-15T05:21:52;28.80;;;6.73;;
23101;SDS011;11720;51.214;22.574;2023-02-15T05:24:18;12.87;;;6.47;;
23101;SDS011;11720;51.214;22.574;2023-02-15T05:27:01;15.87;;;7.20;;
23101;SDS011;11720;51.214;22.574;2023-02-15T05:29:45;16.80;;;6.97;;
23101;SDS011;11720;51.214;22.574;2023-02-15T05:32:12;24.93;;;6.83;;
23101;SDS011;11720;51.214;22.574;2023-02-15T05:34:39;16.40;;;7.83;;
23101;SDS011;11720;51.214;22.574;2023-02-15T05:37:05;18.17;;;8.57;;
23101;SDS011;11720;51.214;22.574;2023-02-15T05:39:30;18.30;;;7.73;;
23101;SDS011;11720;51.214;22.574;2023-02-15T05:41:58;18.23;;;8.50;;
23101;SDS011;11720;51.214;22.574;2023-02-15T05:44:25;21.40;;;8.20;;
23101;SDS011;11720;51.214;22.574;2023-02-15T05:46:50;17.00;;;6.80;;
23101;SDS011;11720;51.214;22.574;2023-02-15T05:49:16;16.13;;;7.53;;
23101;SDS011;11720;51.214;22.574;2023-02-15T05:51:42;17.20;;;6.33;;
23101;SDS011;11720;51.214;22.574;2023-02-15T05:54:07;15.90;;;7.47;;
23101;SDS011;11720;51.214;22.574;2023-02-15T05:56:33;20.23;;;8.67;;
23101;SDS011;11720;51.214;22.574;2023-02-15T05:58:59;16.77;;;6.77;;
23101;SDS011;11720;51.214;22.574;2023-02-15T06:01:24;20.23;;;6.67;;
23101;SDS011;11720;51.214;22.574;2023-02-15T06:03:50;12.90;;;6.77;;
23101;SDS011;11720;51.214;22.574;2023-02-15T06:06:16;13.17;;;6.23;;
23101;SDS011;11720;51.214;22.574;2023-02-15T06:08:42;14.00;;;6.60;;
23101;SDS011;11720;51.214;22.574;2023-02-15T06:11:08;17.70;;;8.13;;
23101;SDS011;11720;51.214;22.574;2023-02-15T06:13:34;11.60;;;5.40;;
23101;SDS011;11720;51.214;22.574;2023-02-15T06:16:00;20.33;;;6.53;;
23101;SDS011;11720;51.214;22.574;2023-02-15T06:18:26;10.30;;;5.17;;
23101;SDS011;11720;51.214;22.574;2023-02-15T06:20:52;9.70;;;6.40;;
23101;SDS011;11720;51.214;22.574;2023-02-15T06:23:17;22.17;;;7.53;;
23101;SDS011;11720;51.214;22.574;2023-02-15T06:25:46;13.70;;;7.63;;
23101;SDS011;11720;51.214;22.574;2023-02-15T06:28:12;10.63;;;6.27;;
23101;SDS011;11720;51.214;22.574;2023-02-15T06:30:38;22.97;;;7.70;;
23101;SDS011;11720;51.214;22.574;2023-02-15T06:33:04;11.90;;;7.20;;
23101;SDS011;11720;51.214;22.574;2023-02-15T06:35:30;16.63;;;6.87;;
23101;SDS011;11720;51.214;22.574;2023-02-15T06:37:56;11.07;;;5.90;;
23101;SDS011;11720;51.214;22.574;2023-02-15T06:40:21;12.87;;;6.70;;
23101;SDS011;11720;51.214;22.574;2023-02-15T06:42:47;13.53;;;5.63;;
23101;SDS011;11720;51.214;22.574;2023-02-15T06:45:13;18.30;;;6.50;;
23101;SDS011;11720;51.214;22.574;2023-02-15T06:47:39;14.73;;;7.77;;
23101;SDS011;11720;51.214;22.574;2023-02-15T06:50:05;12.53;;;5.50;;
23101;SDS011;11720;51.214;22.574;2023-02-15T06:52:31;11.93;;;5.10;;
23101;SDS011;11720;51.214;22.574;2023-02-15T06:54:57;17.13;;;7.00;;
23101;SDS011;11720;51.214;22.574;2023-02-15T06:57:23;9.03;;;5.70;;
23101;SDS011;11720;51.214;22.574;2023-02-15T06:59:48;17.83;;;8.00;;
23101;SDS011;11720;51.214;22.574;2023-02-15T07:02:14;18.33;;;7.63;;
23101;SDS011;11720;51.214;22.574;2023-02-15T07:04:40;18.77;;;9.10;;
23101;SDS011;11720;51.214;22.574;2023-02-15T07:07:09;16.37;;;8.73;;
23101;SDS011;11720;51.214;22.574;2023-02-15T07:09:36;12.73;;;6.37;;
23101;SDS011;11720;51.214;22.574;2023-02-15T07:12:02;11.23;;;5.67;;
23101;SDS011;11720;51.214;22.574;2023-02-15T07:14:46;19.93;;;4.73;;
23101;SDS011;11720;51.214;22.574;2023-02-15T07:17:12;12.10;;;6.83;;
23101;SDS011;11720;51.214;22.574;2023-02-15T07:19:38;13.03;;;6.37;;
23101;SDS011;11720;51.214;22.574;2023-02-15T07:22:03;13.00;;;5.60;;
23101;SDS011;11720;51.214;22.574;2023-02-15T07:24:30;7.47;;;3.77;;
23101;SDS011;11720;51.214;22.574;2023-02-15T07:26:55;11.40;;;5.33;;
23101;SDS011;11720;51.214;22.574;2023-02-15T07:29:22;12.33;;;6.00;;
23101;SDS011;11720;51.214;22.574;2023-02-15T07:31:48;11.50;;;5.63;;
23101;SDS011;11720;51.214;22.574;2023-02-15T07:34:14;10.17;;;4.87;;
23101;SDS011;11720;51.214;22.574;2023-02-15T07:36:40;20.10;;;6.00;;
23101;SDS011;11720;51.214;22.574;2023-02-15T07:39:06;10.37;;;6.30;;
23101;SDS011;11720;51.214;22.574;2023-02-15T07:41:32;12.80;;;5.77;;
23101;SDS011;11720;51.214;22.574;2023-02-15T07:43:58;11.23;;;4.80;;
23101;SDS011;11720;51.214;22.574;2023-02-15T07:46:24;8.83;;;4.83;;
23101;SDS011;11720;51.214;22.574;2023-02-15T07:48:49;12.17;;;6.47;;
23101;SDS011;11720;51.214;22.574;2023-02-15T07:51:15;10.83;;;5.97;;
23101;SDS011;11720;51.214;22.574;2023-02-15T07:53:41;8.57;;;4.10;;
23101;SDS011;11720;51.214;22.574;2023-02-15T07:56:09;11.40;;;6.70;;
23101;SDS011;11720;51.214;22.574;2023-02-15T07:58:36;16.30;;;6.70;;
23101;SDS011;11720;51.214;22.574;2023-02-15T08:01:25;10.63;;;5.50;;
23101;SDS011;11720;51.214;22.574;2023-02-15T08:03:58;14.40;;;7.33;;
23101;SDS011;11720;51.214;22.574;2023-02-15T08:06:25;11.17;;;5.50;;
23101;SDS011;11720;51.214;22.574;2023-02-15T08:08:53;16.00;;;7.27;;
23101;SDS011;11720;51.214;22.574;2023-02-15T08:14:02;12.40;;;5.37;;
23101;SDS011;11720;51.214;22.574;2023-02-15T08:16:40;13.17;;;5.43;;
23101;SDS011;11720;51.214;22.574;2023-02-15T08:21:56;11.67;;;5.60;;
23101;SDS011;11720;51.214;22.574;2023-02-15T08:24:24;14.90;;;6.37;;
23101;SDS011;11720;51.214;22.574;2023-02-15T08:26:55;9.93;;;5.50;;
23101;SDS011;11720;51.214;22.574;2023-02-15T08:29:22;10.97;;;5.40;;
23101;SDS011;11720;51.214;22.574;2023-02-15T08:31:55;12.57;;;7.23;;
23101;SDS011;11720;51.214;22.574;2023-02-15T08:34:23;16.53;;;7.50;;
23101;SDS011;11720;51.214;22.574;2023-02-15T08:36:49;10.10;;;5.17;;
23101;SDS011;11720;51.214;22.574;2023-02-15T08:39:16;16.30;;;6.37;;
23101;SDS011;11720;51.214;22.574;2023-02-15T08:41:43;13.60;;;6.60;;
23101;SDS011;11720;51.214;22.574;2023-02-15T08:44:10;10.83;;;6.27;;
23101;SDS011;11720;51.214;22.574;2023-02-15T08:46:37;19.67;;;8.67;;
23101;SDS011;11720;51.214;22.574;2023-02-15T08:49:05;8.53;;;6.57;;
23101;SDS011;11720;51.214;22.574;2023-02-15T08:51:35;19.33;;;8.83;;
23101;SDS011;11720;51.214;22.574;2023-02-15T08:54:03;10.43;;;5.60;;
23101;SDS011;11720;51.214;22.574;2023-02-15T08:56:37;10.57;;;6.17;;
23101;SDS011;11720;51.214;22.574;2023-02-15T08:59:05;15.43;;;8.00;;
23101;SDS011;11720;51.214;22.574;2023-02-15T09:01:32;12.10;;;5.80;;
23101;SDS011;11720;51.214;22.574;2023-02-15T09:04:03;16.50;;;7.90;;
23101;SDS011;11720;51.214;22.574;2023-02-15T09:06:33;19.77;;;6.07;;
23101;SDS011;11720;51.214;22.574;2023-02-15T09:08:59;11.13;;;6.23;;
23101;SDS011;11720;51.214;22.574;2023-02-15T09:11:29;16.00;;;7.00;;
23101;SDS011;11720;51.214;22.574;2023-02-15T09:13:59;17.60;;;7.03;;
23101;SDS011;11720;51.214;22.574;2023-02-15T09:16:31;13.07;;;6.33;;
23101;SDS011;11720;51.214;22.574;2023-02-15T09:18:57;11.70;;;6.97;;
23101;SDS011;11720;51.214;22.574;2023-02-15T09:21:24;13.63;;;5.80;;
23101;SDS011;11720;51.214;22.574;2023-02-15T09:23:52;18.33;;;8.03;;
23101;SDS011;11720;51.214;22.574;2023-02-15T09:26:21;24.47;;;7.33;;
23101;SDS011;11720;51.214;22.574;2023-02-15T09:28:50;22.53;;;9.83;;
23101;SDS011;11720;51.214;22.574;2023-02-15T09:31:18;11.77;;;7.37;;
23101;SDS011;11720;51.214;22.574;2023-02-15T09:33:46;17.90;;;7.57;;
23101;SDS011;11720;51.214;22.574;2023-02-15T09:36:23;10.87;;;5.57;;
23101;SDS011;11720;51.214;22.574;2023-02-15T09:38:57;21.27;;;6.97;;
23101;SDS011;11720;51.214;22.574;2023-02-15T09:44:31;24.70;;;8.10;;
23101;SDS011;11720;51.214;22.574;2023-02-15T09:50:06;9.23;;;5.27;;
23101;SDS011;11720;51.214;22.574;2023-02-15T09:58:32;13.47;;;7.50;;
23101;SDS011;11720;51.214;22.574;2023-02-15T10:22:39;14.40;;;6.57;;
23101;SDS011;11720;51.214;22.574;2023-02-15T10:27:47;8.90;;;4.63;;
23101;SDS011;11720;51.214;22.574;2023-02-15T10:30:15;7.07;;;4.90;;
23101;SDS011;11720;51.214;22.574;2023-02-15T10:32:48;9.83;;;5.60;;
23101;SDS011;11720;51.214;22.574;2023-02-15T10:35:22;11.77;;;6.33;;
23101;SDS011;11720;51.214;22.574;2023-02-15T10:40:25;13.13;;;6.43;;
23101;SDS011;11720;51.214;22.574;2023-02-15T10:43:06;10.93;;;5.77;;
23101;SDS011;11720;51.214;22.574;2023-02-15T10:45:58;10.80;;;4.97;;
23101;SDS011;11720;51.214;22.574;2023-02-15T10:49:05;8.50;;;5.10;;
23101;SDS011;11720;51.214;22.574;2023-02-15T11:02:33;8.13;;;4.30;;
23101;SDS011;11720;51.214;22.574;2023-02-15T11:05:24;11.00;;;5.67;;
23101;SDS011;11720;51.214;22.574;2023-02-15T11:08:06;11.83;;;5.30;;
23101;SDS011;11720;51.214;22.574;2023-02-15T11:13:17;16.63;;;6.67;;
23101;SDS011;11720;51.214;22.574;2023-02-15T11:15:45;6.87;;;4.50;;
23101;SDS011;11720;51.214;22.574;2023-02-15T11:18:31;8.93;;;5.70;;
23101;SDS011;11720;51.214;22.574;2023-02-15T11:21:26;13.27;;;5.00;;
23101;SDS011;11720;51.214;22.574;2023-02-15T11:23:57;8.47;;;4.67;;
23101;SDS011;11720;51.214;22.574;2023-02-15T11:31:49;11.63;;;6.00;;
23101;SDS011;11720;51.214;22.574;2023-02-15T11:37:01;9.97;;;5.47;;
23101;SDS011;11720;51.214;22.574;2023-02-15T11:39:33;9.23;;;5.17;;
23101;SDS011;11720;51.214;22.574;2023-02-15T11:42:34;10.77;;;4.87;;
23101;SDS011;11720;51.214;22.574;2023-02-15T11:45:06;12.03;;;4.90;;
23101;SDS011;11720;51.214;22.574;2023-02-15T11:47:51;12.10;;;4.60;;
23101;SDS011;11720;51.214;22.574;2023-02-15T11:50:22;12.00;;;4.40;;
23101;SDS011;11720;51.214;22.574;2023-02-15T11:52:56;12.63;;;6.40;;
23101;SDS011;11720;51.214;22.574;2023-02-15T11:55:24;12.53;;;5.37;;
23101;SDS011;11720;51.214;22.574;2023-02-15T11:58:04;13.10;;;5.67;;
23101;SDS011;11720;51.214;22.574;2023-02-15T12:00:45;13.13;;;5.67;;
23101;SDS011;11720;51.214;22.574;2023-02-15T12:03:14;7.17;;;4.13;;
23101;SDS011;11720;51.214;22.574;2023-02-15T12:05:44;11.03;;;5.40;;
23101;SDS011;11720;51.214;22.574;2023-02-15T12:08:19;9.37;;;5.20;;
23101;SDS011;11720;51.214;22.574;2023-02-15T12:13:23;15.97;;;5.83;;
23101;SDS011;11720;51.214;22.574;2023-02-15T12:15:50;19.87;;;6.40;;
23101;SDS011;11720;51.214;22.574;2023-02-15T12:21:05;18.33;;;5.70;;
23101;SDS011;11720;51.214;22.574;2023-02-15T12:23:34;12.17;;;6.77;;
23101;SDS011;11720;51.214;22.574;2023-02-15T12:26:08;17.33;;;6.33;;
23101;SDS011;11720;51.214;22.574;2023-02-15T12:28:35;20.40;;;7.13;;
23101;SDS011;11720;51.214;22.574;2023-02-15T12:31:19;11.07;;;5.53;;
23101;SDS011;11720;51.214;22.574;2023-02-15T12:33:48;9.60;;;5.33;;
23101;SDS011;11720;51.214;22.574;2023-02-15T12:36:18;16.53;;;7.27;;
23101;SDS011;11720;51.214;22.574;2023-02-15T12:39:05;14.60;;;6.60;;
23101;SDS011;11720;51.214;22.574;2023-02-15T12:41:46;14.73;;;6.20;;
23101;SDS011;11720;51.214;22.574;2023-02-15T12:47:03;12.20;;;6.03;;
23101;SDS011;11720;51.214;22.574;2023-02-15T12:49:41;11.67;;;5.27;;
23101;SDS011;11720;51.214;22.574;2023-02-15T12:54:43;9.13;;;4.90;;
23101;SDS011;11720;51.214;22.574;2023-02-15T12:59:58;12.33;;;5.37;;
23101;SDS011;11720;51.214;22.574;2023-02-15T13:02:35;11.67;;;5.80;;
23101;SDS011;11720;51.214;22.574;2023-02-15T13:08:19;14.87;;;6.00;;
23101;SDS011;11720;51.214;22.574;2023-02-15T13:13:28;20.00;;;5.80;;
23101;SDS011;11720;51.214;22.574;2023-02-15T13:16:00;12.13;;;5.93;;
23101;SDS011;11720;51.214;22.574;2023-02-15T13:18:34;12.87;;;6.23;;
23101;SDS011;11720;51.214;22.574;2023-02-15T13:21:12;14.00;;;7.53;;
23101;SDS011;11720;51.214;22.574;2023-02-15T13:23:39;12.07;;;4.80;;
23101;SDS011;11720;51.214;22.574;2023-02-15T13:26:10;15.40;;;5.43;;
23101;SDS011;11720;51.214;22.574;2023-02-15T13:28:50;18.07;;;8.13;;
23101;SDS011;11720;51.214;22.574;2023-02-15T13:31:20;15.60;;;6.30;;
23101;SDS011;11720;51.214;22.574;2023-02-15T13:33:56;15.53;;;6.70;;
23101;SDS011;11720;51.214;22.574;2023-02-15T13:42:37;22.45;;;7.32;;
23101;SDS011;11720;51.214;22.574;2023-02-15T13:50:29;15.20;;;6.40;;
23101;SDS011;11720;51.214;22.574;2023-02-15T14:06:28;15.38;;;6.85;;
23101;SDS011;11720;51.214;22.574;2023-02-15T14:26:10;18.10;;;7.20;;
23101;SDS011;11720;51.214;22.574;2023-02-15T14:28:45;17.48;;;7.75;;
23101;SDS011;11720;51.214;22.574;2023-02-15T14:31:35;24.13;;;8.20;;
23101;SDS011;11720;51.214;22.574;2023-02-15T14:34:08;17.25;;;7.07;;
23101;SDS011;11720;51.214;22.574;2023-02-15T14:36:44;16.73;;;7.10;;
23101;SDS011;11720;51.214;22.574;2023-02-15T14:42:11;18.75;;;7.47;;
23101;SDS011;11720;51.214;22.574;2023-02-15T14:44:44;18.87;;;7.23;;
23101;SDS011;11720;51.214;22.574;2023-02-15T14:47:38;15.57;;;7.83;;
23101;SDS011;11720;51.214;22.574;2023-02-15T14:50:51;18.57;;;9.33;;
23101;SDS011;11720;51.214;22.574;2023-02-15T14:56:05;16.57;;;6.77;;
23101;SDS011;11720;51.214;22.574;2023-02-15T14:58:35;15.07;;;6.63;;
23101;SDS011;11720;51.214;22.574;2023-02-15T15:01:07;13.40;;;7.20;;
23101;SDS011;11720;51.214;22.574;2023-02-15T15:03:35;10.67;;;6.47;;
23101;SDS011;11720;51.214;22.574;2023-02-15T15:06:02;16.83;;;6.60;;
23101;SDS011;11720;51.214;22.574;2023-02-15T15:08:38;18.97;;;7.43;;
23101;SDS011;11720;51.214;22.574;2023-02-15T15:13:54;9.87;;;5.77;;
23101;SDS011;11720;51.214;22.574;2023-02-15T15:19:03;14.60;;;7.57;;
23101;SDS011;11720;51.214;22.574;2023-02-15T15:30:02;23.70;;;10.53;;
23101;SDS011;11720;51.214;22.574;2023-02-15T15:49:09;20.70;;;9.80;;
23101;SDS011;11720;51.214;22.574;2023-02-15T15:51:46;18.73;;;8.97;;
23101;SDS011;11720;51.214;22.574;2023-02-15T15:54:17;23.17;;;10.23;;
23101;SDS011;11720;51.214;22.574;2023-02-15T15:56:47;35.07;;;11.40;;
23101;SDS011;11720;51.214;22.574;2023-02-15T15:59:22;21.93;;;9.77;;
23101;SDS011;11720;51.214;22.574;2023-02-15T16:01:51;22.03;;;10.10;;
23101;SDS011;11720;51.214;22.574;2023-02-15T16:04:27;26.23;;;10.90;;
23101;SDS011;11720;51.214;22.574;2023-02-15T16:06:55;15.47;;;8.90;;
23101;SDS011;11720;51.214;22.574;2023-02-15T16:09:23;22.60;;;9.07;;
23101;SDS011;11720;51.214;22.574;2023-02-15T16:11:51;22.13;;;9.23;;
23101;SDS011;11720;51.214;22.574;2023-02-15T16:16:56;35.87;;;14.07;;
23101;SDS011;11720;51.214;22.574;2023-02-15T16:19:26;51.37;;;17.30;;
23101;SDS011;11720;51.214;22.574;2023-02-15T16:21:54;59.83;;;23.63;;
23101;SDS011;11720;51.214;22.574;2023-02-15T16:24:47;55.80;;;22.77;;
23101;SDS011;11720;51.214;22.574;2023-02-15T16:27:29;96.77;;;33.00;;
23101;SDS011;11720;51.214;22.574;2023-02-15T16:32:53;119.30;;;36.87;;
23101;SDS011;11720;51.214;22.574;2023-02-15T16:35:21;115.17;;;42.13;;
23101;SDS011;11720;51.214;22.574;2023-02-15T16:37:48;106.43;;;35.03;;
23101;SDS011;11720;51.214;22.574;2023-02-15T16:40:56;84.57;;;35.87;;
23101;SDS011;11720;51.214;22.574;2023-02-15T16:43:10;124.57;;;46.50;;
23101;SDS011;11720;51.214;22.574;2023-02-15T16:45:42;110.70;;;41.07;;
23101;SDS011;11720;51.214;22.574;2023-02-15T16:48:11;125.83;;;45.20;;
23101;SDS011;11720;51.214;22.574;2023-02-15T16:50:40;128.03;;;42.57;;
23101;SDS011;11720;51.214;22.574;2023-02-15T16:53:14;111.27;;;39.83;;
23101;SDS011;11720;51.214;22.574;2023-02-15T16:55:45;97.90;;;40.80;;
23101;SDS011;11720;51.214;22.574;2023-02-15T16:58:16;148.97;;;58.80;;
23101;SDS011;11720;51.214;22.574;2023-02-15T17:00:43;137.00;;;51.17;;
23101;SDS011;11720;51.214;22.574;2023-02-15T17:05:40;115.97;;;45.20;;
23101;SDS011;11720;51.214;22.574;2023-02-15T17:08:23;116.97;;;45.10;;
23101;SDS011;11720;51.214;22.574;2023-02-15T17:11:04;132.30;;;46.47;;
23101;SDS011;11720;51.214;22.574;2023-02-15T17:16:32;115.43;;;42.77;;
23101;SDS011;11720;51.214;22.574;2023-02-15T17:19:01;118.10;;;45.13;;
23101;SDS011;11720;51.214;22.574;2023-02-15T17:21:30;128.60;;;49.97;;
23101;SDS011;11720;51.214;22.574;2023-02-15T17:24:00;186.67;;;78.17;;
23101;SDS011;11720;51.214;22.574;2023-02-15T17:26:36;167.87;;;66.60;;
23101;SDS011;11720;51.214;22.574;2023-02-15T17:31:57;224.03;;;84.00;;
23101;SDS011;11720;51.214;22.574;2023-02-15T17:37:11;180.03;;;75.53;;
23101;SDS011;11720;51.214;22.574;2023-02-15T17:39:56;184.10;;;69.10;;
23101;SDS011;11720;51.214;22.574;2023-02-15T17:42:23;171.03;;;64.17;;
23101;SDS011;11720;51.214;22.574;2023-02-15T17:44:50;181.07;;;68.13;;
23101;SDS011;11720;51.214;22.574;2023-02-15T17:47:16;192.97;;;66.77;;
23101;SDS011;11720;51.214;22.574;2023-02-15T17:49:44;157.70;;;59.67;;
23101;SDS011;11720;51.214;22.574;2023-02-15T17:52:13;141.23;;;56.07;;
23101;SDS011;11720;51.214;22.574;2023-02-15T17:54:40;189.73;;;65.93;;
23101;SDS011;11720;51.214;22.574;2023-02-15T17:57:38;109.90;;;52.70;;
23101;SDS011;11720;51.214;22.574;2023-02-15T18:00:04;139.43;;;57.17;;
23101;SDS011;11720;51.214;22.574;2023-02-15T18:02:49;115.60;;;46.37;;
23101;SDS011;11720;51.214;22.574;2023-02-15T18:05:34;137.47;;;45.67;;
23101;SDS011;11720;51.214;22.574;2023-02-15T18:08:18;124.47;;;47.53;;
23101;SDS011;11720;51.214;22.574;2023-02-15T18:11:09;127.40;;;49.17;;
23101;SDS011;11720;51.214;22.574;2023-02-15T18:13:54;113.87;;;48.67;;
23101;SDS011;11720;51.214;22.574;2023-02-15T18:16:22;149.13;;;53.70;;
23101;SDS011;11720;51.214;22.574;2023-02-15T18:18:54;162.70;;;54.47;;
23101;SDS011;11720;51.214;22.574;2023-02-15T18:21:21;151.40;;;53.57;;
23101;SDS011;11720;51.214;22.574;2023-02-15T18:23:48;149.10;;;57.27;;
23101;SDS011;11720;51.214;22.574;2023-02-15T18:26:23;135.70;;;58.17;;